Time;durP1;ratioP1;P1;durP2;ratioP2;P2;SDS_P1;SDS_P2;PMS_P1;PMS_P2;Temp;Humidity;BMP_temperature;BMP_pressure;BME280_temperature;BME280_humidity;BME280_pressure;Samples;Min_cycle;Max_cycle;Signal;HPM_P1;HPM_P2
2022/01/26 00:07:50;;;;;;;;;44.75;38.00;;;;;4.34;64.99;103341.59;5079881;27;45275;-87
2022/01/26 00:10:16;;;;;;;;;50.75;37.75;;;;;4.28;65.10;103344.88;5079758;27;45171;-87
2022/01/26 00:12:41;;;;;;;;;49.00;39.00;;;;;4.23;64.55;103335.13;5078766;27;45274;-87
2022/01/26 00:15:08;;;;;;;;;49.75;37.25;;;;;4.15;64.55;103348.75;5079647;28;45609;-87
2022/01/26 00:17:33;;;;;;;;;51.00;34.00;;;;;4.15;64.60;103348.75;5079720;27;46460;-87
2022/01/26 00:20:10;;;;;;;;;39.00;33.00;;;;;4.15;64.50;103343.53;5079228;28;45411;-87
2022/01/26 00:25:20;;;;;;;;;39.75;31.75;;;;;4.10;64.62;103333.81;5079819;27;45408;-87
2022/01/26 00:41:07;;;;;;;;;41.75;35.25;;;;;4.08;64.50;103357.16;5074530;27;45888;-86
2022/01/26 00:43:34;;;;;;;;;54.75;38.50;;;;;4.00;64.18;103349.06;5079866;28;45441;-85
2022/01/26 00:46:01;;;;;;;;;44.50;36.00;;;;;3.97;64.53;103354.19;5077997;27;45955;-88
2022/01/26 00:48:30;;;;;;;;;45.50;38.00;;;;;3.94;64.32;103356.66;5079676;27;45419;-89
2022/01/26 00:51:00;;;;;;;;;53.75;40.00;;;;;3.94;65.06;103343.66;5081321;27;45454;-89
2022/01/26 00:53:32;;;;;;;;;51.00;38.75;;;;;4.01;64.35;103350.84;5089881;27;45408;-88
2022/01/26 00:55:58;;;;;;;;;50.50;39.25;;;;;4.04;64.15;103353.56;5079529;27;45424;-89
2022/01/26 00:58:24;;;;;;;;;41.75;36.25;;;;;4.02;64.47;103355.25;5095908;27;46185;-90
2022/01/26 01:00:49;;;;;;;;;39.00;31.25;;;;;3.94;64.24;103354.06;5082329;27;45383;-91
2022/01/26 01:03:15;;;;;;;;;41.25;35.50;;;;;3.89;63.88;103356.47;5079580;28;45330;-87
2022/01/26 01:05:54;;;;;;;;;43.75;31.75;;;;;3.87;63.81;103362.47;5078981;28;45470;-88
2022/01/26 01:08:23;;;;;;;;;43.75;36.75;;;;;3.85;64.75;103358.91;5084300;27;46166;-88
2022/01/26 01:10:50;;;;;;;;;41.75;35.50;;;;;3.80;63.94;103351.81;5079319;27;46090;-87
2022/01/26 01:13:19;;;;;;;;;48.25;37.00;;;;;3.84;64.31;103352.81;5080081;27;45378;-84
2022/01/26 01:15:46;;;;;;;;;46.50;34.25;;;;;3.83;64.70;103351.03;5083479;27;45447;-84
2022/01/26 01:18:22;;;;;;;;;44.75;32.75;;;;;3.80;64.85;103351.81;5092825;27;46226;-84
2022/01/26 01:21:18;;;;;;;;;38.75;33.00;;;;;3.79;64.65;103347.44;5094099;27;45788;-83
2022/01/26 01:31:46;;;;;;;;;46.75;34.50;;;;;3.77;65.12;103343.91;5082064;27;45449;-84
2022/01/26 01:34:13;;;;;;;;;34.00;32.00;;;;;3.72;65.37;103355.84;5082536;27;45219;-83
2022/01/26 01:36:41;;;;;;;;;43.00;37.00;;;;;3.71;65.42;103349.75;5095456;27;45507;-83
2022/01/26 01:39:07;;;;;;;;;40.50;35.75;;;;;3.76;65.22;103351.63;5082224;27;45518;-84
2022/01/26 01:41:34;;;;;;;;;49.25;36.25;;;;;3.78;65.33;103356.06;5094816;27;45297;-86
2022/01/26 01:44:00;;;;;;;;;41.25;36.50;;;;;3.79;65.50;103355.25;5079997;27;45242;-86
2022/01/26 01:46:27;;;;;;;;;35.50;33.25;;;;;3.80;65.30;103343.13;5082122;28;45211;-86
2022/01/26 01:48:53;;;;;;;;;41.75;36.25;;;;;3.86;65.32;103355.47;5082257;27;45666;-86
2022/01/26 01:51:19;;;;;;;;;39.75;33.25;;;;;3.89;64.92;103355.59;5094929;27;45354;-86
2022/01/26 01:53:45;;;;;;;;;38.00;32.00;;;;;3.94;65.00;103367.06;5082760;27;45467;-84
2022/01/26 01:56:13;;;;;;;;;43.00;35.50;;;;;3.97;65.31;103361.97;5082030;27;45342;-85
2022/01/26 01:58:39;;;;;;;;;41.25;34.50;;;;;4.01;64.91;103357.75;5080392;28;46542;-85
2022/01/26 02:01:05;;;;;;;;;46.25;32.50;;;;;4.01;64.38;103371.66;5082267;27;45190;-86
2022/01/26 02:03:31;;;;;;;;;37.25;33.00;;;;;4.01;64.90;103371.66;5086274;27;45207;-84
2022/01/26 02:05:57;;;;;;;;;42.25;36.75;;;;;4.00;65.02;103362.06;5090277;27;45210;-87
2022/01/26 02:08:22;;;;;;;;;39.75;34.75;;;;;4.04;64.36;103373.50;5081540;28;45208;-87
2022/01/26 02:10:48;;;;;;;;;38.00;33.00;;;;;4.04;64.52;103374.41;5081888;27;45380;-85
2022/01/26 02:13:25;;;;;;;;;47.00;33.75;;;;;3.99;64.20;103372.44;5082004;27;45389;-87
2022/01/26 02:55:55;;;;;;;;;34.75;32.00;;;;;3.83;64.91;103358.84;5081355;27;45422;-86
2022/01/26 03:04:09;;;;;;;;;41.00;34.50;;;;;3.83;64.58;103359.72;5081160;28;45462;-80
2022/01/26 03:06:46;;;;;;;;;36.25;28.25;;;;;3.86;64.48;103356.38;5079805;27;45256;-80
2022/01/26 03:09:15;;;;;;;;;38.50;30.00;;;;;3.85;64.14;103361.53;5080952;27;45337;-80
2022/01/26 03:11:43;;;;;;;;;41.50;33.00;;;;;3.80;64.88;103354.41;5080943;27;45518;-80
2022/01/26 03:16:46;;;;;;;;;40.50;31.00;;;;;3.83;64.12;103345.81;5080872;27;45341;-85
2022/01/26 03:19:22;;;;;;;;;31.75;26.75;;;;;3.83;63.95;103341.53;5095676;27;45513;-83
2022/01/26 03:30:33;;;;;;;;;30.50;24.75;;;;;3.88;64.36;103353.81;5089228;27;45717;-81
2022/01/26 03:33:10;;;;;;;;;40.25;30.50;;;;;3.85;64.34;103354.59;5070750;27;47052;-81
2022/01/26 03:35:31;;;;;;;;;32.50;25.50;;;;;3.81;64.54;103340.59;5079825;27;45757;-81
2022/01/26 03:37:58;;;;;;;;;35.00;26.50;;;;;3.81;64.33;103340.59;5079723;28;45412;-81
2022/01/26 03:40:31;;;;;;;;;31.75;28.25;;;;;3.83;63.98;103338.03;5091807;27;45471;-81
2022/01/26 03:42:57;;;;;;;;;32.25;26.50;;;;;3.86;64.05;103345.06;5080977;27;45420;-81
2022/01/26 03:45:25;;;;;;;;;33.75;29.00;;;;;3.86;64.39;103332.94;5080620;27;45733;-79
2022/01/26 03:47:50;;;;;;;;;28.50;21.75;;;;;3.91;63.99;103346.13;5080203;27;45199;-79
2022/01/26 03:50:16;;;;;;;;;30.50;25.75;;;;;3.87;63.90;103332.13;5078583;28;46659;-79
2022/01/26 03:52:41;;;;;;;;;30.00;25.00;;;;;3.90;64.30;103339.16;5078956;28;47421;-79
2022/01/26 03:55:07;;;;;;;;;38.00;30.50;;;;;3.94;64.52;103333.22;5080075;28;45168;-80
2022/01/26 03:57:32;;;;;;;;;37.75;33.50;;;;;4.05;64.25;103352.72;5079242;27;45348;-81
2022/01/26 03:59:58;;;;;;;;;30.75;27.00;;;;;4.01;64.36;103340.44;5080372;28;45486;-82
2022/01/26 04:02:23;;;;;;;;;31.50;27.50;;;;;4.02;64.25;103342.22;5080080;28;45379;-82
2022/01/26 04:04:54;;;;;;;;;34.75;28.00;;;;;4.05;63.98;103347.53;5079713;27;45336;-83
2022/01/26 04:07:20;;;;;;;;;35.75;29.25;;;;;4.04;63.95;103343.16;5080368;27;45154;-84
2022/01/26 04:09:45;;;;;;;;;36.50;32.00;;;;;4.08;64.41;103336.34;5093264;27;45212;-83
2022/01/26 04:12:11;;;;;;;;;28.50;24.00;;;;;4.19;64.05;103344.53;5080116;28;45281;-83
2022/01/26 04:14:37;;;;;;;;;36.00;30.75;;;;;4.24;63.98;103336.91;5079758;28;45167;-83
2022/01/26 04:17:02;;;;;;;;;41.00;32.50;;;;;4.29;63.62;103332.75;5076383;27;45218;-83
2022/01/26 04:19:31;;;;;;;;;31.75;29.75;;;;;4.28;63.94;103334.47;5096191;27;45606;-83
2022/01/26 04:22:13;;;;;;;;;35.50;31.25;;;;;4.33;63.79;103336.31;5089772;27;45515;-84
2022/01/26 04:24:45;;;;;;;;;41.75;33.25;;;;;4.36;63.74;103331.22;5078939;28;45362;-83
2022/01/26 04:29:45;;;;;;;;;38.00;31.75;;;;;4.44;63.75;103328.91;5079774;27;45253;-81
2022/01/26 04:32:13;;;;;;;;;39.75;35.75;;;;;4.46;63.63;103322.91;5079446;28;45430;-81
2022/01/26 04:34:39;;;;;;;;;36.50;31.25;;;;;4.45;63.75;103328.06;5079471;27;45385;-84
2022/01/26 04:37:23;;;;;;;;;45.00;32.00;;;;;4.49;64.11;103327.34;5080093;27;45379;-82
2022/01/26 04:39:59;;;;;;;;;45.50;33.50;;;;;4.53;63.59;103329.22;5079819;27;45333;-82
2022/01/26 04:42:35;;;;;;;;;50.50;34.00;;;;;4.54;63.51;103325.78;5079234;28;45405;-82
2022/01/26 04:45:06;;;;;;;;;49.00;36.50;;;;;4.59;63.76;103323.34;5079820;27;45573;-82
2022/01/26 04:47:31;;;;;;;;;55.50;39.75;;;;;4.63;63.49;103317.38;5092216;27;45471;-82
2022/01/26 04:49:57;;;;;;;;;40.50;35.50;;;;;4.65;63.33;103309.63;5091662;27;45223;-79
2022/01/26 04:52:23;;;;;;;;;43.50;35.25;;;;;4.71;62.93;103308.13;5096790;27;46315;-79
2022/01/26 04:54:49;;;;;;;;;43.00;34.50;;;;;4.72;63.17;103319.41;5083328;27;45381;-80
2022/01/26 04:57:15;;;;;;;;;45.75;38.25;;;;;4.73;63.62;103319.47;5083275;27;45503;-83
2022/01/26 04:59:40;;;;;;;;;42.50;35.50;;;;;4.80;63.69;103327.50;5094478;27;45381;-83
2022/01/26 05:02:05;;;;;;;;;49.00;38.00;;;;;4.82;63.71;103331.03;5082626;28;45402;-84
2022/01/26 05:04:31;;;;;;;;;45.25;34.50;;;;;4.81;63.43;103317.13;5082766;27;45325;-84
2022/01/26 05:06:56;;;;;;;;;43.75;35.50;;;;;4.85;63.31;103323.31;5082969;27;45338;-81
2022/01/26 05:09:22;;;;;;;;;38.00;34.75;;;;;4.88;63.44;103314.72;5090458;27;45533;-80
2022/01/26 05:11:50;;;;;;;;;41.25;34.25;;;;;4.89;63.53;103312.16;5089674;27;45576;-80
2022/01/26 05:14:16;;;;;;;;;53.00;36.75;;;;;4.92;63.52;103320.06;5086074;27;45797;-80
2022/01/26 05:16:41;;;;;;;;;52.00;38.75;;;;;4.93;63.35;103315.75;5082789;28;45493;-80
2022/01/26 05:19:06;;;;;;;;;42.25;36.25;;;;;4.93;63.04;103310.53;5081843;27;45382;-80
2022/01/26 05:21:33;;;;;;;;;49.50;38.00;;;;;4.97;63.01;103316.72;5082515;28;46462;-80
2022/01/26 05:23:58;;;;;;;;;34.25;33.50;;;;;4.99;62.64;103315.09;5082751;28;45732;-81
2022/01/26 05:26:24;;;;;;;;;54.50;38.75;;;;;4.97;62.98;103308.91;5082514;28;45459;-81
2022/01/26 05:28:50;;;;;;;;;53.00;38.75;;;;;4.97;63.02;103304.59;5082524;27;45792;-81
2022/01/26 05:31:16;;;;;;;;;47.00;37.00;;;;;4.99;62.74;103307.25;5082532;27;45437;-85
2022/01/26 05:33:41;;;;;;;;;45.00;35.25;;;;;4.99;62.86;103302.91;5085781;27;45591;-88
2022/01/26 05:36:07;;;;;;;;;45.25;34.50;;;;;5.01;63.09;103305.59;5080934;28;45454;-88
2022/01/26 05:38:32;;;;;;;;;55.00;38.00;;;;;5.02;63.02;103302.13;5088937;27;45401;-88
2022/01/26 05:41:02;;;;;;;;;52.00;38.25;;;;;5.03;62.79;103309.13;5082163;27;46710;-87
2022/01/26 05:43:29;;;;;;;;;45.50;36.50;;;;;5.07;62.62;103300.53;5082208;27;45223;-84
2022/01/26 05:45:58;;;;;;;;;52.75;33.75;;;;;5.05;62.99;103299.63;5082596;28;45457;-84
2022/01/26 05:48:24;;;;;;;;;50.50;36.25;;;;;5.06;63.34;103296.19;5082238;27;45464;-83
2022/01/26 05:50:51;;;;;;;;;54.75;39.50;;;;;5.07;62.85;103287.50;5081664;27;46419;-83
2022/01/26 05:53:17;;;;;;;;;58.75;39.25;;;;;5.05;62.91;103282.25;5082106;27;45314;-83
2022/01/26 05:55:43;;;;;;;;;47.75;38.50;;;;;5.04;62.90;103287.41;5082370;28;45444;-83
2022/01/26 05:58:08;;;;;;;;;53.25;38.50;;;;;5.04;62.94;103290.00;5088023;27;45548;-83
2022/01/26 06:00:34;;;;;;;;;48.00;40.75;;;;;5.05;62.58;103290.09;5082126;27;46485;-84
2022/01/26 06:02:59;;;;;;;;;54.25;39.25;;;;;5.08;62.82;103297.13;5082131;27;45302;-85
2022/01/26 06:05:24;;;;;;;;;54.25;39.00;;;;;5.06;62.46;103277.94;5081657;28;45881;-86
2022/01/26 06:07:50;;;;;;;;;52.50;39.50;;;;;5.09;62.75;103293.66;5080135;27;45863;-83
2022/01/26 06:10:15;;;;;;;;;57.00;39.75;;;;;5.07;62.84;103290.13;5095075;27;46156;-82
2022/01/26 06:12:41;;;;;;;;;57.00;41.50;;;;;5.08;62.76;103299.72;5087631;27;45333;-81
2022/01/26 06:15:06;;;;;;;;;59.00;42.50;;;;;5.07;62.35;103301.44;5082764;27;45345;-84
2022/01/26 06:17:32;;;;;;;;;53.50;42.00;;;;;5.04;62.16;103300.44;5081536;28;45322;-83
2022/01/26 06:19:57;;;;;;;;;55.50;40.25;;;;;5.03;62.06;103302.19;5090890;27;45839;-82
2022/01/26 06:22:23;;;;;;;;;58.50;41.75;;;;;5.05;62.26;103317.88;5084300;27;45369;-82
2022/01/26 06:24:48;;;;;;;;;59.50;46.75;;;;;5.09;62.21;103324.94;5080635;27;45427;-82
2022/01/26 06:27:13;;;;;;;;;54.25;41.75;;;;;5.06;62.84;103319.66;5079951;27;46000;-82
2022/01/26 06:29:39;;;;;;;;;46.50;38.00;;;;;5.07;62.74;103327.50;5081649;27;46619;-84
2022/01/26 06:32:05;;;;;;;;;58.75;42.75;;;;;5.11;62.73;103344.13;5081595;27;45462;-82
2022/01/26 06:34:31;;;;;;;;;59.00;44.50;;;;;5.12;62.82;103345.91;5081504;27;45301;-84
2022/01/26 06:36:56;;;;;;;;;57.75;45.25;;;;;5.10;62.63;103347.59;5081593;27;45220;-85
2022/01/26 06:39:23;;;;;;;;;58.75;41.75;;;;;5.09;61.98;103348.41;5080846;27;46429;-85
2022/01/26 06:41:52;;;;;;;;;54.00;40.25;;;;;5.08;62.02;103351.88;5081350;27;45324;-83
2022/01/26 06:44:32;;;;;;;;;62.25;45.50;;;;;5.09;61.74;103360.59;5081674;28;45337;-81
2022/01/26 06:49:35;;;;;;;;;62.00;46.50;;;;;5.02;61.68;103359.47;5069770;28;45452;-80
2022/01/26 06:52:00;;;;;;;;;60.25;46.00;;;;;5.03;61.58;103366.47;5079870;28;45296;-81
2022/01/26 06:54:26;;;;;;;;;64.75;47.75;;;;;5.01;61.46;103374.22;5092047;27;45495;-85
2022/01/26 06:56:51;;;;;;;;;60.25;45.50;;;;;4.97;61.29;103371.47;5079040;27;45496;-85
2022/01/26 06:59:17;;;;;;;;;60.75;44.00;;;;;4.95;62.05;103380.13;5081172;27;48120;-83
2022/01/26 07:01:42;;;;;;;;;64.00;45.00;;;;;4.97;61.37;103369.75;5079602;27;45407;-83
2022/01/26 07:04:08;;;;;;;;;65.25;48.50;;;;;4.95;61.62;103366.22;5079381;27;46001;-85
2022/01/26 07:06:34;;;;;;;;;69.25;46.25;;;;;4.92;61.08;103361.78;5078003;28;45466;-85
2022/01/26 07:08:59;;;;;;;;;58.00;45.00;;;;;4.93;61.46;103368.78;5071639;27;45448;-85
2022/01/26 07:11:25;;;;;;;;;58.25;45.50;;;;;4.93;61.32;103374.00;5081509;27;45276;-81
2022/01/26 07:13:53;;;;;;;;;60.50;48.00;;;;;4.92;61.31;103379.13;5079090;28;45414;-82
2022/01/26 07:21:46;;;;;;;;;59.75;45.00;;;;;4.83;61.20;103374.50;5091663;27;45438;-87
2022/01/26 07:24:11;;;;;;;;;66.00;45.75;;;;;4.81;61.80;103371.88;5080294;27;45201;-87
2022/01/26 07:26:37;;;;;;;;;58.75;44.75;;;;;4.83;61.45;103369.28;5081017;27;45294;-80
2022/01/26 07:29:11;;;;;;;;;59.25;47.00;;;;;4.83;61.78;103369.28;5073982;28;45212;-80
2022/01/26 07:31:42;;;;;;;;;60.50;47.75;;;;;4.86;61.68;103353.78;5080365;27;45818;-80
2022/01/26 07:34:09;;;;;;;;;65.00;43.25;;;;;4.87;61.03;103365.94;5074387;28;45313;-80
2022/01/26 07:36:34;;;;;;;;;67.75;48.75;;;;;4.88;61.36;103367.75;5080654;28;45695;-80
2022/01/26 07:39:06;;;;;;;;;66.50;50.00;;;;;4.87;61.36;103378.09;5075207;28;45986;-80
2022/01/26 07:41:32;;;;;;;;;67.50;48.75;;;;;4.86;61.92;103382.44;5076582;28;45396;-80
2022/01/26 07:43:57;;;;;;;;;59.50;45.00;;;;;4.86;62.04;103385.03;5080679;28;45381;-81
2022/01/26 07:46:24;;;;;;;;;65.00;48.25;;;;;4.88;62.29;103377.28;5075815;28;47199;-80
2022/01/26 07:48:49;;;;;;;;;63.75;47.00;;;;;4.93;61.90;103376.59;5074891;28;45515;-80
2022/01/26 07:51:15;;;;;;;;;53.00;42.00;;;;;4.92;61.69;103384.34;5085282;27;45281;-81
2022/01/26 07:53:40;;;;;;;;;64.00;45.25;;;;;4.92;61.70;103389.56;5081233;27;45362;-81
2022/01/26 07:56:05;;;;;;;;;57.75;45.25;;;;;4.90;61.54;103386.91;5078969;28;45187;-81
2022/01/26 07:58:31;;;;;;;;;64.25;45.50;;;;;4.95;62.17;103392.28;5078268;27;46894;-80
2022/01/26 08:00:56;;;;;;;;;66.25;47.50;;;;;4.99;61.66;103391.53;5089527;27;45423;-80
2022/01/26 08:03:22;;;;;;;;;60.25;48.25;;;;;5.05;61.50;103396.09;5080401;28;45309;-80
2022/01/26 08:05:47;;;;;;;;;65.75;46.75;;;;;5.03;61.42;103395.16;5077399;28;45499;-80
2022/01/26 08:08:12;;;;;;;;;63.00;49.00;;;;;5.02;61.32;103402.06;5087450;27;47341;-80
2022/01/26 08:10:38;;;;;;;;;65.25;45.25;;;;;5.01;61.56;103402.03;5080025;28;45187;-80
2022/01/26 08:13:04;;;;;;;;;52.50;42.50;;;;;5.07;61.93;103410.06;5079522;28;45380;-80
2022/01/26 08:15:29;;;;;;;;;65.75;50.00;;;;;5.04;61.44;103395.19;5078136;27;45624;-80
2022/01/26 08:17:57;;;;;;;;;66.75;50.00;;;;;5.11;62.06;103391.06;5086040;27;45447;-80
2022/01/26 08:20:22;;;;;;;;;68.00;50.25;;;;;5.13;62.15;103376.38;5088007;27;45716;-80
2022/01/26 08:22:49;;;;;;;;;66.00;50.75;;;;;5.16;61.77;103372.97;5088128;27;45319;-80
2022/01/26 08:25:15;;;;;;;;;63.50;47.25;;;;;5.20;62.06;103363.53;5079467;28;45356;-81
2022/01/26 08:27:44;;;;;;;;;62.00;47.00;;;;;5.22;61.89;103367.94;5078288;27;48273;-81
2022/01/26 08:30:14;;;;;;;;;64.50;49.00;;;;;5.28;61.76;103378.56;5078501;28;46105;-81
2022/01/26 08:32:40;;;;;;;;;61.00;47.50;;;;;5.31;62.13;103382.13;5080101;28;45231;-80
2022/01/26 08:35:06;;;;;;;;;68.00;50.00;;;;;5.29;61.99;103363.81;5078991;28;45498;-80
2022/01/26 08:37:31;;;;;;;;;65.50;48.50;;;;;5.32;61.71;103363.91;5084430;27;46469;-80
2022/01/26 08:39:57;;;;;;;;;64.25;48.75;;;;;5.35;62.02;103361.41;5096410;27;45235;-79
2022/01/26 08:42:22;;;;;;;;;63.00;47.75;;;;;5.37;61.58;103378.00;5078547;28;45298;-80
2022/01/26 08:44:47;;;;;;;;;62.25;46.75;;;;;5.41;61.54;103384.19;5077749;28;46119;-80
2022/01/26 08:47:13;;;;;;;;;69.75;50.25;;;;;5.44;61.55;103367.75;5079476;27;45208;-80
2022/01/26 08:49:38;;;;;;;;;62.25;46.75;;;;;5.45;61.78;103359.09;5079021;27;45471;-80
2022/01/26 08:52:04;;;;;;;;;66.25;50.00;;;;;5.49;62.04;103382.72;5078783;28;45275;-80
2022/01/26 08:54:29;;;;;;;;;69.75;48.50;;;;;5.50;61.49;103394.03;5078529;27;46017;-80
2022/01/26 08:56:55;;;;;;;;;70.00;51.75;;;;;5.55;62.03;103391.56;5078025;28;46511;-80
2022/01/26 08:59:22;;;;;;;;;66.25;49.25;;;;;5.54;61.40;103388.06;5079127;27;45286;-80
2022/01/26 09:01:49;;;;;;;;;62.00;48.50;;;;;5.55;61.38;103387.25;5078616;27;45444;-80
2022/01/26 09:04:15;;;;;;;;;66.50;48.00;;;;;5.55;61.56;103379.41;5078834;27;45610;-80
2022/01/26 09:06:53;;;;;;;;;62.00;48.00;;;;;5.60;61.57;103396.09;5077257;28;46257;-81
2022/01/26 09:09:21;;;;;;;;;70.50;49.00;;;;;5.61;61.51;103403.06;5079099;27;45344;-81
2022/01/26 09:11:48;;;;;;;;;65.00;50.50;;;;;5.61;61.63;103392.63;5079099;27;45511;-81
2022/01/26 09:14:18;;;;;;;;;65.75;50.50;;;;;5.63;61.55;103388.34;5078504;27;45184;-81
2022/01/26 09:16:49;;;;;;;;;68.75;51.25;;;;;5.65;61.21;103395.34;5090692;27;46417;-81
2022/01/26 09:19:49;;;;;;;;;71.00;52.25;;;;;5.66;60.83;103402.31;5084174;27;45298;-81
2022/01/26 09:22:12;;;;;;;;;62.50;49.25;;;;;5.67;60.55;103406.72;5077983;27;45542;-81
2022/01/26 09:24:39;;;;;;;;;68.75;51.50;;;;;5.61;61.09;103413.50;5077143;28;46453;-81
2022/01/26 09:27:06;;;;;;;;;64.25;50.25;;;;;5.65;61.04;103422.34;5078795;27;45443;-82
2022/01/26 09:29:32;;;;;;;;;69.75;52.75;;;;;5.65;61.16;103429.28;5090974;27;45369;-81
2022/01/26 09:31:58;;;;;;;;;64.25;47.50;;;;;5.66;61.33;103418.88;5071976;27;45456;-81
2022/01/26 09:34:27;;;;;;;;;65.25;48.00;;;;;5.69;61.41;103425.91;5079220;27;45492;-81
2022/01/26 09:36:52;;;;;;;;;69.25;50.50;;;;;5.72;61.18;103428.63;5070208;28;48111;-81
2022/01/26 09:39:20;;;;;;;;;65.75;49.50;;;;;5.72;60.98;103429.53;5076977;28;45418;-86
2022/01/26 09:41:47;;;;;;;;;64.75;49.00;;;;;5.75;61.44;103441.78;5080287;28;45360;-82
2022/01/26 09:44:13;;;;;;;;;65.75;48.25;;;;;5.78;61.34;103427.94;5083636;27;47436;-82
2022/01/26 09:46:39;;;;;;;;;62.25;48.00;;;;;5.79;61.26;103425.38;5090886;27;45558;-82
2022/01/26 09:49:05;;;;;;;;;63.75;47.00;;;;;5.80;61.39;103432.34;5080909;28;45894;-82
2022/01/26 09:51:39;;;;;;;;;61.75;45.00;;;;;5.81;61.20;103436.72;5079938;27;45275;-81
2022/01/26 09:54:12;;;;;;;;;69.00;49.75;;;;;5.85;61.04;103443.81;5088783;27;45507;-82
2022/01/26 09:56:38;;;;;;;;;61.50;46.75;;;;;5.87;61.20;103449.09;5092880;27;45446;-81
2022/01/26 09:59:06;;;;;;;;;61.25;46.75;;;;;5.91;61.02;103448.34;5079498;27;45621;-82
2022/01/26 10:01:44;;;;;;;;;60.00;48.00;;;;;5.92;61.31;103447.53;5081963;28;45295;-81
2022/01/26 10:04:37;;;;;;;;;60.25;47.25;;;;;5.97;61.07;103443.28;5081244;27;45454;-81
2022/01/26 10:07:10;;;;;;;;;65.00;48.25;;;;;6.00;61.04;103447.72;5081183;28;45606;-82
2022/01/26 10:17:49;;;;;;;;;61.50;45.25;;;;;5.98;60.63;103444.19;5085032;27;45409;-82
2022/01/26 10:20:17;;;;;;;;;65.00;50.00;;;;;6.00;60.77;103447.72;5080434;27;45438;-81
2022/01/26 10:22:43;;;;;;;;;61.50;45.75;;;;;6.00;61.18;103441.63;5084164;27;45160;-81
2022/01/26 10:25:17;;;;;;;;;62.75;48.00;;;;;6.05;61.09;103446.13;5080493;27;45465;-82
2022/01/26 10:27:45;;;;;;;;;64.50;46.25;;;;;6.05;61.33;103435.69;5080894;28;46446;-81
2022/01/26 10:30:13;;;;;;;;;66.75;50.25;;;;;6.04;60.54;103444.38;5079614;27;45941;-82
2022/01/26 10:32:40;;;;;;;;;61.25;45.00;;;;;6.04;60.57;103452.22;5080294;28;45369;-82
2022/01/26 10:35:07;;;;;;;;;64.50;48.75;;;;;6.07;60.64;103457.53;5081145;28;45160;-82
2022/01/26 10:37:33;;;;;;;;;64.25;47.00;;;;;6.07;60.46;103441.88;5072523;28;47159;-82
2022/01/26 10:40:14;;;;;;;;;65.25;48.25;;;;;6.05;61.18;103430.47;5065077;28;45436;-82
2022/01/26 10:42:51;;;;;;;;;60.75;47.25;;;;;6.05;60.97;103427.88;5080485;27;45409;-82
2022/01/26 10:45:19;;;;;;;;;65.00;47.00;;;;;6.12;60.85;103435.94;5079610;28;46112;-82
2022/01/26 10:47:47;;;;;;;;;67.00;50.00;;;;;6.08;60.99;103429.72;5081036;27;45473;-82
2022/01/26 10:53:14;;;;;;;;;64.50;48.75;;;;;6.15;61.04;103438.63;5090473;27;45420;-81
2022/01/26 10:55:40;;;;;;;;;63.25;45.50;;;;;6.16;61.07;103432.56;5082821;27;46518;-81
2022/01/26 10:58:07;;;;;;;;;63.50;47.25;;;;;6.19;60.82;103445.72;5081103;28;45475;-81
2022/01/26 11:00:36;;;;;;;;;63.50;49.50;;;;;6.21;61.13;103427.47;5078871;27;45929;-82
2022/01/26 11:03:02;;;;;;;;;70.00;50.75;;;;;6.23;61.13;103429.28;5067349;28;45289;-82
2022/01/26 11:05:27;;;;;;;;;69.75;50.25;;;;;6.23;61.17;103416.22;5069126;28;45428;-82
2022/01/26 11:07:57;;;;;;;;;69.25;51.00;;;;;6.25;60.87;103421.47;5078441;28;46546;-82
2022/01/26 11:10:31;;;;;;;;;61.50;47.00;;;;;6.29;60.65;103429.47;5080191;27;45412;-82
2022/01/26 11:12:56;;;;;;;;;60.50;45.00;;;;;6.28;60.58;103416.34;5097835;27;45370;-81
2022/01/26 11:15:23;;;;;;;;;64.25;49.25;;;;;6.30;60.63;103399.88;5080652;27;45550;-81
2022/01/26 11:17:51;;;;;;;;;67.00;50.00;;;;;6.35;60.69;103412.19;5080326;28;46273;-82
2022/01/26 11:20:22;;;;;;;;;66.25;50.00;;;;;6.34;60.40;103410.44;5095891;27;45228;-82
2022/01/26 11:22:54;;;;;;;;;69.50;49.00;;;;;6.40;60.62;103410.59;5079428;27;45324;-81
2022/01/26 11:25:21;;;;;;;;;67.75;50.75;;;;;6.37;61.01;103406.16;5078619;28;46448;-81
2022/01/26 11:27:47;;;;;;;;;62.75;47.75;;;;;6.41;60.43;103396.69;5078811;28;48193;-82
2022/01/26 11:30:19;;;;;;;;;65.75;50.00;;;;;6.44;60.55;103394.16;5080804;28;45382;-82
2022/01/26 11:32:58;;;;;;;;;63.75;47.00;;;;;6.47;60.13;103390.75;5080333;27;45344;-81
2022/01/26 11:35:30;;;;;;;;;60.00;45.50;;;;;6.46;60.47;103388.97;5079751;28;45222;-83
2022/01/26 11:46:24;;;;;;;;;70.50;53.25;;;;;6.50;60.75;103381.25;5079606;28;45297;-83
2022/01/26 11:49:05;;;;;;;;;75.00;55.75;;;;;6.49;60.87;103379.50;5079009;28;46630;-83
2022/01/26 11:51:57;;;;;;;;;76.50;55.25;;;;;6.52;60.84;103369.13;5108919;27;45423;-83
2022/01/26 11:54:28;;;;;;;;;75.25;57.25;;;;;6.53;60.23;103376.13;5079025;28;45291;-84
2022/01/26 11:57:04;;;;;;;;;72.00;52.25;;;;;6.53;60.80;103363.06;5080022;27;45294;-83
2022/01/26 11:59:32;;;;;;;;;71.75;53.00;;;;;6.56;60.72;103356.13;5080475;27;46358;-84
2022/01/26 12:02:06;;;;;;;;;71.75;54.50;;;;;6.56;60.09;103357.03;5079889;27;45276;-83
2022/01/26 12:04:35;;;;;;;;;76.25;55.75;;;;;6.55;60.76;103354.34;5079967;28;45616;-83
2022/01/26 12:07:21;;;;;;;;;68.00;49.50;;;;;6.56;60.42;103350.91;5095733;27;46210;-83
2022/01/26 12:09:47;;;;;;;;;72.50;54.75;;;;;6.54;60.27;103337.81;5078866;28;47371;-84
2022/01/26 12:12:21;;;;;;;;;69.75;53.25;;;;;6.52;60.13;103337.75;5080194;27;45273;-83
2022/01/26 12:15:04;;;;;;;;;75.50;55.00;;;;;6.56;60.35;103343.97;5079899;27;45412;-84
2022/01/26 12:17:34;;;;;;;;;69.00;53.00;;;;;6.56;60.24;103343.06;5080076;28;45400;-84
2022/01/26 12:34:36;;;;;;;;;70.75;54.00;;;;;6.56;60.36;103336.13;5079645;28;45432;-83
2022/01/26 12:37:37;;;;;;;;;74.50;56.00;;;;;6.57;60.42;103329.16;5080264;27;45221;-82
2022/01/26 12:45:07;;;;;;;;;68.50;52.75;;;;;6.60;60.27;103334.44;5079641;28;45214;-83
2022/01/26 12:47:33;;;;;;;;;70.25;53.75;;;;;6.64;60.24;103345.03;5079825;27;45276;-83
2022/01/26 12:49:59;;;;;;;;;69.00;54.00;;;;;6.64;60.21;103349.41;5082438;27;46158;-83
2022/01/26 12:52:25;;;;;;;;;70.75;52.50;;;;;6.63;60.58;103345.00;5088417;27;45356;-84
2022/01/26 12:54:51;;;;;;;;;74.25;54.50;;;;;6.62;60.30;103343.22;5079551;28;45411;-84
2022/01/26 12:57:16;;;;;;;;;71.75;54.25;;;;;6.62;60.22;103338.00;5079882;28;45481;-83
2022/01/26 12:59:43;;;;;;;;;69.75;53.25;;;;;6.65;60.17;103343.31;5079460;27;45298;-84
2022/01/26 13:02:09;;;;;;;;;74.75;54.75;;;;;6.64;60.01;103337.19;5079562;28;45389;-83
2022/01/26 13:04:36;;;;;;;;;77.50;55.25;;;;;6.68;60.21;103324.19;5079075;27;45743;-84
2022/01/26 13:07:03;;;;;;;;;64.25;50.50;;;;;6.67;59.88;103317.22;5079569;27;45167;-83
2022/01/26 13:09:41;;;;;;;;;78.50;57.25;;;;;6.68;59.95;103317.25;5079031;28;47233;-83
2022/01/26 13:12:06;;;;;;;;;70.75;55.75;;;;;6.71;60.33;103317.34;5086488;27;46063;-84
2022/01/26 13:14:43;;;;;;;;;76.00;54.75;;;;;6.72;59.96;103311.25;5087922;27;45350;-84
2022/01/26 13:25:32;;;;;;;;;77.75;58.25;;;;;6.74;59.92;103309.53;5082278;28;45802;-83
2022/01/26 13:31:16;;;;;;;;;74.50;55.75;;;;;6.74;59.97;103316.53;5082684;28;45446;-83
2022/01/26 13:37:05;;;;;;;;;70.25;53.00;;;;;6.77;59.98;103321.81;5082438;27;45760;-83
2022/01/26 13:50:18;;;;;;;;;71.75;54.50;;;;;6.79;60.29;103316.63;5082169;28;45287;-83
2022/01/26 13:52:54;;;;;;;;;79.50;59.25;;;;;6.79;59.63;103308.81;5068929;27;45726;-83
2022/01/26 13:55:43;;;;;;;;;75.00;56.00;;;;;6.80;59.89;103310.56;5072249;28;46175;-83
2022/01/26 14:00:53;;;;;;;;;75.25;56.00;;;;;6.76;60.05;103304.38;5081520;27;45440;-83
2022/01/26 14:03:19;;;;;;;;;76.25;57.00;;;;;6.77;60.09;103305.25;5079449;28;45234;-83
2022/01/26 14:05:44;;;;;;;;;76.50;57.50;;;;;6.80;60.27;103307.94;5080729;27;45625;-85
2022/01/26 14:08:09;;;;;;;;;71.75;56.25;;;;;6.75;60.30;103298.25;5079065;27;45491;-86